Time;durP1;ratioP1;P1;durP2;ratioP2;P2;SDS_P1;SDS_P2;PMS_P1;PMS_P2;Temp;Humidity;BMP_temperature;BMP_pressure;BME280_temperature;BME280_humidity;BME280_pressure;Samples;Min_cycle;Max_cycle;Signal;HPM_P1;HPM_P2
2022/10/23 00:01:49;;;;;;;;;;;14.50;99.90;;;;;;4985654;28;20000;-65
2022/10/23 00:04:14;;;;;;;;;;;;;;;;;;4993127;28;20016;-65
2022/10/23 00:06:40;;;;;;;;;;;14.50;99.90;;;;;;4987011;28;20346;-65
2022/10/23 00:09:06;;;;;;;;;;;;;;;;;;4990849;28;19960;-65
2022/10/23 00:11:32;;;;;;;;;;;;;;;;;;4991150;28;19910;-65
2022/10/23 00:13:59;;;;;;;;;;;14.90;99.90;;;;;;4986517;28;19980;-64
2022/10/23 00:16:25;;;;;;;;;;;14.80;99.90;;;;;;4999952;28;19917;-65
2022/10/23 00:18:51;;;;;;;;;;;;;;;;;;4988171;28;19909;-65
2022/10/23 00:21:17;;;;;;;;;;;15.00;99.90;;;;;;4990038;28;19913;-65
2022/10/23 00:23:42;;;;;;;;;;;15.00;99.90;;;;;;4990405;28;19964;-65
2022/10/23 00:26:10;;;;;;;;;;;15.00;99.90;;;;;;4992065;28;19937;-64
2022/10/23 00:28:36;;;;;;;;;;;15.00;99.90;;;;;;4997337;28;19917;-65
2022/10/23 00:31:05;;;;;;;;;;;15.00;99.90;;;;;;4990654;28;19918;-65
2022/10/23 00:33:31;;;;;;;;;;;14.90;99.90;;;;;;4988661;28;20353;-64
2022/10/23 00:35:57;;;;;;;;;;;;;;;;;;5001210;28;19917;-65
2022/10/23 00:38:23;;;;;;;;;;;14.90;99.90;;;;;;4995083;28;19956;-64
2022/10/23 00:40:48;;;;;;;;;;;;;;;;;;4998001;28;20012;-65
2022/10/23 00:43:14;;;;;;;;;;;;;;;;;;5005287;28;19910;-64
2022/10/23 00:45:40;;;;;;;;;;;15.00;99.90;;;;;;5000188;28;19960;-65
2022/10/23 00:48:05;;;;;;;;;;;15.10;99.90;;;;;;4993616;28;20299;-65
2022/10/23 00:50:31;;;;;;;;;;;;;;;;;;4997202;28;19917;-65
2022/10/23 00:52:57;;;;;;;;;;;;;;;;;;5002646;28;19910;-65
2022/10/23 00:55:24;;;;;;;;;;;15.40;99.90;;;;;;5004422;28;19945;-65
2022/10/23 00:57:49;;;;;;;;;;;;;;;;;;4992855;28;19916;-64
2022/10/23 01:00:23;;;;;;;;;;;15.50;99.90;;;;;;4996613;28;20012;-65
2022/10/23 01:02:49;;;;;;;;;;;;;;;;;;5002525;28;19913;-65
2022/10/23 01:05:15;;;;;;;;;;;;;;;;;;5009426;28;20341;-65
2022/10/23 01:07:49;;;;;;;;;;;15.60;99.90;;;;;;4994731;28;20285;-65
2022/10/23 01:10:15;;;;;;;;;;;;;;;;;;5002059;28;20392;-66
2022/10/23 01:12:53;;;;;;;;;;;15.60;99.90;;;;;;4996608;28;19910;-65
2022/10/23 01:15:21;;;;;;;;;;;15.50;99.90;;;;;;4993674;28;19928;-66
2022/10/23 01:17:50;;;;;;;;;;;15.40;99.90;;;;;;5003393;28;19913;-67
2022/10/23 01:20:38;;;;;;;;;;;15.50;99.90;;;;;;5001203;28;19920;-65
2022/10/23 01:23:04;;;;;;;;;;;;;;;;;;5004558;28;19916;-65
2022/10/23 01:25:35;;;;;;;;;;;15.40;99.90;;;;;;4999860;28;19917;-65
2022/10/23 01:28:01;;;;;;;;;;;;;;;;;;5002804;28;19909;-65
2022/10/23 01:30:28;;;;;;;;;;;15.40;99.90;;;;;;4994971;28;19909;-65
2022/10/23 01:32:54;;;;;;;;;;;;;;;;;;4993348;28;20370;-64
2022/10/23 01:35:19;;;;;;;;;;;;;;;;;;5000768;28;19909;-64
2022/10/23 01:37:45;;;;;;;;;;;;;;;;;;4994135;28;19910;-64
2022/10/23 01:40:11;;;;;;;;;;;;;;;;;;4998501;28;20332;-65
2022/10/23 01:42:40;;;;;;;;;;;15.30;99.90;;;;;;4993677;28;19920;-64
2022/10/23 01:45:13;;;;;;;;;;;15.30;99.90;;;;;;4994209;28;19924;-64
2022/10/23 01:47:39;;;;;;;;;;;;;;;;;;4994899;28;19917;-64
2022/10/23 01:50:05;;;;;;;;;;;15.10;99.90;;;;;;4998191;28;19916;-64
2022/10/23 01:52:31;;;;;;;;;;;;;;;;;;5000584;28;19914;-64
2022/10/23 01:54:58;;;;;;;;;;;15.00;99.90;;;;;;4999337;28;19998;-64
2022/10/23 01:57:25;;;;;;;;;;;15.00;99.90;;;;;;5002106;28;20477;-64
2022/10/23 01:59:54;;;;;;;;;;;15.00;99.90;;;;;;4998101;28;19937;-64
2022/10/23 02:02:21;;;;;;;;;;;14.90;99.90;;;;;;4991697;28;19910;-64
2022/10/23 02:04:59;;;;;;;;;;;15.00;99.90;;;;;;5000975;28;19972;-65
2022/10/23 02:07:24;;;;;;;;;;;14.90;99.90;;;;;;4996748;28;19966;-64
2022/10/23 02:09:50;;;;;;;;;;;14.90;99.90;;;;;;5000014;28;20276;-65
2022/10/23 02:12:16;;;;;;;;;;;;;;;;;;4991888;28;19996;-65
2022/10/23 02:14:56;;;;;;;;;;;14.90;99.90;;;;;;5001650;28;19932;-64
2022/10/23 02:17:37;;;;;;;;;;;14.90;99.90;;;;;;5001300;28;19917;-65
2022/10/23 02:20:03;;;;;;;;;;;;;;;;;;5002520;28;19917;-65
2022/10/23 02:22:29;;;;;;;;;;;;;;;;;;5000505;28;19909;-65
2022/10/23 02:24:55;;;;;;;;;;;;;;;;;;5003734;28;19918;-65
2022/10/23 02:27:23;;;;;;;;;;;15.30;99.90;;;;;;4991029;28;19909;-65
2022/10/23 02:29:52;;;;;;;;;;;15.30;99.90;;;;;;5008500;28;20372;-65
2022/10/23 02:32:19;;;;;;;;;;;15.40;99.90;;;;;;4990762;28;19917;-64
2022/10/23 02:34:45;;;;;;;;;;;;;;;;;;5001226;28;19943;-65
2022/10/23 02:37:10;;;;;;;;;;;15.60;99.90;;;;;;4992175;28;19910;-65
2022/10/23 02:39:36;;;;;;;;;;;;;;;;;;5001195;28;20276;-66
2022/10/23 02:42:04;;;;;;;;;;;15.50;99.90;;;;;;4989742;28;19910;-62
2022/10/23 02:44:30;;;;;;;;;;;15.40;99.90;;;;;;5000843;28;19913;-64
2022/10/23 02:47:07;;;;;;;;;;;15.30;99.90;;;;;;4990448;28;19944;-64
2022/10/23 02:49:33;;;;;;;;;;;;;;;;;;5000286;28;19909;-64
2022/10/23 02:51:59;;;;;;;;;;;15.10;99.90;;;;;;4991951;28;20396;-64
2022/10/23 02:54:30;;;;;;;;;;;15.10;99.90;;;;;;5001519;28;19909;-64
2022/10/23 02:57:04;;;;;;;;;;;15.30;99.90;;;;;;4991143;28;20175;-64
2022/10/23 02:59:35;;;;;;;;;;;15.40;99.90;;;;;;4993134;28;19910;-64
2022/10/23 03:02:05;;;;;;;;;;;15.50;99.90;;;;;;4992195;28;19937;-64
2022/10/23 03:04:31;;;;;;;;;;;;;;;;;;5002123;28;19917;-64
2022/10/23 03:06:56;;;;;;;;;;;15.70;99.90;;;;;;4992830;28;19925;-64
2022/10/23 03:09:24;;;;;;;;;;;15.80;99.90;;;;;;4993301;28;20429;-64
2022/10/23 03:11:50;;;;;;;;;;;15.90;99.90;;;;;;5005049;28;19914;-64
2022/10/23 03:14:15;;;;;;;;;;;15.80;99.90;;;;;;4991767;28;19909;-64
2022/10/23 03:16:41;;;;;;;;;;;;;;;;;;4997500;28;19914;-64
2022/10/23 03:19:07;;;;;;;;;;;15.70;99.90;;;;;;4992964;28;19920;-64
2022/10/23 03:21:33;;;;;;;;;;;;;;;;;;4994745;28;20445;-64
2022/10/23 03:23:58;;;;;;;;;;;15.60;99.90;;;;;;4993862;28;20371;-64
2022/10/23 03:26:24;;;;;;;;;;;15.60;99.90;;;;;;4994561;28;19909;-64
2022/10/23 03:28:49;;;;;;;;;;;15.60;99.90;;;;;;4991278;28;19909;-65
2022/10/23 03:31:15;;;;;;;;;;;15.50;99.90;;;;;;5002281;28;20368;-65
2022/10/23 03:33:41;;;;;;;;;;;;;;;;;;4983887;28;19909;-65
2022/10/23 03:36:06;;;;;;;;;;;15.50;99.90;;;;;;4993294;28;19913;-66
2022/10/23 03:38:32;;;;;;;;;;;15.50;99.90;;;;;;4994043;28;19910;-66
2022/10/23 03:40:57;;;;;;;;;;;15.50;99.90;;;;;;5004426;28;20277;-63
2022/10/23 03:43:23;;;;;;;;;;;15.60;99.90;;;;;;5031045;23;19928;-66
2022/10/23 03:45:49;;;;;;;;;;;15.60;99.90;;;;;;5017619;28;19967;-66
2022/10/23 03:48:15;;;;;;;;;;;15.50;99.90;;;;;;5019622;28;20282;-67
2022/10/23 03:50:40;;;;;;;;;;;15.50;99.90;;;;;;5013496;28;19992;-68
2022/10/23 03:53:06;;;;;;;;;;;15.30;99.90;;;;;;5011453;28;19909;-67
2022/10/23 03:55:32;;;;;;;;;;;;;;;;;;5015440;28;20304;-68
2022/10/23 03:57:57;;;;;;;;;;;15.50;99.90;;;;;;5019763;28;19909;-67
2022/10/23 04:00:23;;;;;;;;;;;15.40;99.90;;;;;;5016211;28;19936;-67
2022/10/23 04:02:48;;;;;;;;;;;15.50;99.90;;;;;;5009702;28;19917;-66
2022/10/23 04:05:14;;;;;;;;;;;;;;;;;;5009255;28;19925;-67
2022/10/23 04:07:40;;;;;;;;;;;15.40;99.90;;;;;;5015566;28;20432;-67
2022/10/23 04:10:05;;;;;;;;;;;15.40;99.90;;;;;;5012709;28;19909;-67
2022/10/23 04:12:31;;;;;;;;;;;;;;;;;;5007873;28;20040;-65
2022/10/23 04:14:57;;;;;;;;;;;15.40;99.90;;;;;;5026588;28;19909;-67
2022/10/23 04:17:23;;;;;;;;;;;;;;;;;;5013650;28;19917;-67
2022/10/23 04:19:48;;;;;;;;;;;;;;;;;;5008306;28;19909;-66
2022/10/23 04:22:14;;;;;;;;;;;;;;;;;;5016846;28;19921;-67
2022/10/23 04:24:45;;;;;;;;;;;;;;;;;;5014288;28;20349;-67
2022/10/23 04:27:11;;;;;;;;;;;15.50;99.90;;;;;;5012651;28;19909;-67
2022/10/23 04:29:36;;;;;;;;;;;15.50;99.90;;;;;;5007794;28;20051;-68
2022/10/23 04:32:02;;;;;;;;;;;15.60;99.90;;;;;;5012979;28;19917;-67
2022/10/23 04:34:27;;;;;;;;;;;15.50;99.90;;;;;;5009763;28;19909;-65
2022/10/23 04:36:53;;;;;;;;;;;;;;;;;;5014042;28;20319;-68
2022/10/23 04:39:19;;;;;;;;;;;15.50;99.90;;;;;;5014860;28;20420;-66
2022/10/23 04:41:45;;;;;;;;;;;;;;;;;;5009624;28;19917;-63
2022/10/23 04:44:10;;;;;;;;;;;15.50;99.90;;;;;;5012960;28;19964;-66
2022/10/23 04:46:36;;;;;;;;;;;15.60;99.90;;;;;;5016197;28;19913;-67
2022/10/23 04:49:01;;;;;;;;;;;15.70;99.90;;;;;;5015976;28;20373;-67
2022/10/23 04:51:27;;;;;;;;;;;;;;;;;;5019334;28;20384;-68
2022/10/23 04:53:53;;;;;;;;;;;15.90;99.90;;;;;;5012586;28;19914;-67
2022/10/23 04:56:18;;;;;;;;;;;15.90;99.90;;;;;;5013849;28;19909;-67
2022/10/23 04:58:44;;;;;;;;;;;;;;;;;;5009430;28;20281;-67
2022/10/23 05:01:10;;;;;;;;;;;;;;;;;;5011293;28;20368;-67
2022/10/23 05:03:36;;;;;;;;;;;16.10;99.90;;;;;;5005988;28;19917;-67
2022/10/23 05:06:02;;;;;;;;;;;16.10;99.90;;;;;;5013054;28;19925;-67
2022/10/23 05:08:27;;;;;;;;;;;16.20;99.90;;;;;;5016732;28;20356;-67
2022/10/23 05:10:53;;;;;;;;;;;16.20;99.90;;;;;;5007520;28;20281;-64
2022/10/23 05:13:19;;;;;;;;;;;16.20;99.90;;;;;;5020238;28;20348;-67
2022/10/23 05:15:45;;;;;;;;;;;;;;;;;;5008767;28;20003;-69
2022/10/23 05:18:14;;;;;;;;;;;16.10;99.90;;;;;;5015428;28;20455;-68
2022/10/23 05:20:39;;;;;;;;;;;16.10;99.90;;;;;;5008184;28;20309;-69
2022/10/23 05:23:07;;;;;;;;;;;16.10;99.90;;;;;;5016703;28;19944;-68
2022/10/23 05:25:33;;;;;;;;;;;16.20;99.90;;;;;;5012583;28;19917;-67
2022/10/23 05:27:58;;;;;;;;;;;16.20;99.90;;;;;;5009787;28;19916;-67
2022/10/23 05:30:24;;;;;;;;;;;;;;;;;;5015195;28;19913;-68
2022/10/23 05:32:50;;;;;;;;;;;16.10;99.90;;;;;;5010798;28;20260;-67
2022/10/23 05:35:19;;;;;;;;;;;13.70;99.90;;;;;;5018484;28;20365;-68
2022/10/23 05:37:45;;;;;;;;;;;16.40;99.90;;;;;;5008682;28;19913;-68
2022/10/23 05:40:11;;;;;;;;;;;16.30;99.90;;;;;;5019866;28;19909;-68
2022/10/23 05:42:37;;;;;;;;;;;16.50;99.90;;;;;;5018450;28;19917;-67
2022/10/23 05:45:03;;;;;;;;;;;;;;;;;;5010829;28;19971;-67
2022/10/23 05:47:30;;;;;;;;;;;16.60;99.90;;;;;;5009189;28;19909;-67
2022/10/23 05:49:55;;;;;;;;;;;16.80;99.90;;;;;;5013908;28;20017;-67
2022/10/23 05:55:06;;;;;;;;;;;16.70;99.90;;;;;;5026023;28;19917;-65
2022/10/23 05:57:31;;;;;;;;;;;;;;;;;;5021145;28;19909;-68
2022/10/23 05:59:57;;;;;;;;;;;16.00;99.90;;;;;;5013951;28;20276;-68
2022/10/23 06:02:22;;;;;;;;;;;16.00;99.90;;;;;;5021603;28;19917;-68
2022/10/23 06:04:48;;;;;;;;;;;15.80;99.90;;;;;;5013832;28;19917;-68
2022/10/23 06:07:13;;;;;;;;;;;15.80;99.90;;;;;;5013859;28;20176;-69
2022/10/23 06:09:39;;;;;;;;;;;15.80;99.90;;;;;;5014061;28;19909;-68
2022/10/23 06:12:04;;;;;;;;;;;15.70;99.90;;;;;;5012220;28;19914;-70
2022/10/23 06:14:30;;;;;;;;;;;15.70;99.90;;;;;;5014712;28;20377;-68
2022/10/23 06:16:56;;;;;;;;;;;;;;;;;;5013037;28;19910;-69
2022/10/23 06:19:21;;;;;;;;;;;15.70;99.90;;;;;;5016954;28;20296;-69
2022/10/23 06:21:47;;;;;;;;;;;;;;;;;;5023300;28;19916;-67
2022/10/23 06:24:13;;;;;;;;;;;15.60;99.90;;;;;;5022766;28;19971;-69
2022/10/23 06:26:38;;;;;;;;;;;15.50;99.90;;;;;;5013070;28;20356;-67
2022/10/23 06:29:04;;;;;;;;;;;15.60;99.90;;;;;;5011769;28;20424;-65
2022/10/23 06:31:29;;;;;;;;;;;15.60;99.90;;;;;;5014199;28;19909;-66
2022/10/23 06:33:56;;;;;;;;;;;15.70;99.90;;;;;;5011805;28;19920;-66
2022/10/23 06:36:21;;;;;;;;;;;;;;;;;;5018496;28;19917;-68
2022/10/23 06:38:48;;;;;;;;;;;15.70;99.90;;;;;;5012393;28;20553;-69
2022/10/23 06:41:14;;;;;;;;;;;;;;;;;;5017528;28;19910;-69
2022/10/23 06:43:39;;;;;;;;;;;15.70;99.90;;;;;;5018059;28;20293;-68
2022/10/23 06:46:05;;;;;;;;;;;14.40;99.90;;;;;;5020330;28;20382;-68
2022/10/23 06:48:30;;;;;;;;;;;15.60;99.90;;;;;;5012168;28;19909;-67
2022/10/23 06:50:56;;;;;;;;;;;15.60;99.90;;;;;;5013139;28;20384;-70
2022/10/23 06:53:24;;;;;;;;;;;15.60;99.90;;;;;;5024606;28;20010;-70
2022/10/23 06:55:50;;;;;;;;;;;15.60;99.90;;;;;;5022611;28;19932;-68
2022/10/23 06:58:16;;;;;;;;;;;15.60;99.90;;;;;;5010776;28;19917;-70
2022/10/23 07:00:43;;;;;;;;;;;15.70;99.90;;;;;;5013099;28;20280;-71
2022/10/23 07:03:09;;;;;;;;;;;15.70;99.90;;;;;;5011948;28;19909;-71
2022/10/23 07:05:34;;;;;;;;;;;15.80;99.90;;;;;;5003268;28;19941;-70
2022/10/23 07:08:00;;;;;;;;;;;15.90;99.90;;;;;;5010474;28;19913;-70
2022/10/23 07:10:25;;;;;;;;;;;15.90;99.90;;;;;;5019277;28;19912;-70
2022/10/23 07:12:51;;;;;;;;;;;15.90;99.90;;;;;;5017667;28;19963;-70
2022/10/23 07:15:17;;;;;;;;;;;16.00;99.90;;;;;;5008968;28;19913;-70
2022/10/23 07:17:42;;;;;;;;;;;16.00;99.90;;;;;;5010011;28;19909;-69
2022/10/23 07:20:08;;;;;;;;;;;16.00;99.90;;;;;;5015627;28;19913;-70
2022/10/23 07:22:34;;;;;;;;;;;;;;;;;;5016477;28;20273;-71
2022/10/23 07:24:59;;;;;;;;;;;16.10;99.90;;;;;;5015783;28;20008;-71
2022/10/23 07:27:25;;;;;;;;;;;;;;;;;;5012977;28;19929;-71
2022/10/23 07:29:51;;;;;;;;;;;16.20;99.90;;;;;;5015482;28;20004;-68
2022/10/23 07:32:17;;;;;;;;;;;;;;;;;;5014697;28;19916;-68
2022/10/23 07:34:42;;;;;;;;;;;16.10;99.90;;;;;;5012801;28;19920;-69
2022/10/23 07:37:08;;;;;;;;;;;16.10;99.90;;;;;;5015071;28;19909;-68
2022/10/23 07:39:34;;;;;;;;;;;;;;;;;;5020481;28;19995;-68
2022/10/23 07:42:00;;;;;;;;;;;;;;;;;;5011445;28;19963;-68
2022/10/23 07:44:25;;;;;;;;;;;16.10;99.90;;;;;;5013831;28;19960;-69
2022/10/23 07:46:51;;;;;;;;;;;;;;;;;;5007768;28;19910;-70
2022/10/23 07:49:17;;;;;;;;;;;;;;;;;;5009099;28;19909;-68
2022/10/23 07:51:43;;;;;;;;;;;16.20;99.90;;;;;;5013105;28;19955;-70
2022/10/23 07:54:10;;;;;;;;;;;16.10;99.90;;;;;;5013071;28;20040;-69
2022/10/23 07:56:36;;;;;;;;;;;;;;;;;;5018347;28;20344;-69
2022/10/23 07:59:02;;;;;;;;;;;16.10;99.90;;;;;;5011248;28;19909;-68
2022/10/23 08:01:28;;;;;;;;;;;;;;;;;;5017602;28;19964;-69
2022/10/23 08:03:53;;;;;;;;;;;16.20;99.90;;;;;;5016613;28;19913;-70
2022/10/23 08:06:19;;;;;;;;;;;16.30;99.90;;;;;;5012158;28;19917;-69
2022/10/23 08:08:45;;;;;;;;;;;;;;;;;;5017322;28;20377;-69
2022/10/23 08:11:12;;;;;;;;;;;16.30;99.90;;;;;;5021882;28;19909;-69
2022/10/23 08:13:39;;;;;;;;;;;16.20;99.90;;;;;;5014171;28;19955;-68
2022/10/23 08:19:08;;;;;;;;;;;16.10;99.90;;;;;;5013060;28;19916;-67
2022/10/23 08:21:34;;;;;;;;;;;16.00;99.90;;;;;;5018787;28;19909;-68
2022/10/23 08:24:00;;;;;;;;;;;15.80;99.90;;;;;;5009402;28;20000;-68
2022/10/23 08:26:28;;;;;;;;;;;;;;;;;;5010435;28;19913;-68
2022/10/23 08:28:54;;;;;;;;;;;15.60;99.90;;;;;;5010179;28;19971;-66
2022/10/23 08:31:20;;;;;;;;;;;15.70;99.90;;;;;;5014024;28;19913;-68
2022/10/23 08:33:45;;;;;;;;;;;15.60;99.90;;;;;;5009614;28;19920;-67
2022/10/23 08:36:38;;;;;;;;;;;15.60;99.90;;;;;;5016618;28;19909;-69
2022/10/23 08:39:04;;;;;;;;;;;;;;;;;;5002721;28;19963;-71
2022/10/23 08:41:34;;;;;;;;;;;15.50;99.90;;;;;;5015133;28;19939;-72
2022/10/23 08:44:03;;;;;;;;;;;15.60;99.90;;;;;;5021928;28;19971;-72
2022/10/23 08:46:29;;;;;;;;;;;;;;;;;;5015152;28;19932;-71
2022/10/23 08:48:55;;;;;;;;;;;;;;;;;;5008948;28;20353;-72
2022/10/23 08:51:24;;;;;;;;;;;15.70;99.90;;;;;;5014713;28;20280;-73
2022/10/23 08:54:07;;;;;;;;;;;15.50;99.90;;;;;;5007927;28;20401;-71
2022/10/23 08:56:33;;;;;;;;;;;;;;;;;;5010277;28;20427;-72
2022/10/23 08:58:58;;;;;;;;;;;;;;;;;;5017938;28;19956;-73
2022/10/23 09:01:41;;;;;;;;;;;15.70;99.90;;;;;;5016692;28;20365;-73
2022/10/23 09:04:09;;;;;;;;;;;15.70;99.90;;;;;;5009493;28;20014;-73
2022/10/23 09:06:35;;;;;;;;;;;;;;;;;;5018379;28;19916;-72
2022/10/23 09:09:03;;;;;;;;;;;15.70;99.90;;;;;;5021501;28;19910;-71
2022/10/23 09:12:04;;;;;;;;;;;15.80;99.90;;;;;;5019657;28;19916;-71
2022/10/23 09:14:30;;;;;;;;;;;;;;;;;;4988795;28;20345;-70
2022/10/23 09:17:09;;;;;;;;;;;16.00;99.90;;;;;;4991554;28;19945;-73
2022/10/23 09:19:35;;;;;;;;;;;;;;;;;;4986137;28;20068;-73
2022/10/23 09:22:01;;;;;;;;;;;16.60;99.90;;;;;;4989868;28;20016;-75
2022/10/23 09:24:30;;;;;;;;;;;;;;;;;;4988839;28;21626;-73
2022/10/23 09:26:56;;;;;;;;;;;17.00;99.90;;;;;;4977808;28;19909;-74
2022/10/23 09:29:22;;;;;;;;;;;;;;;;;;4994602;28;19928;-75
2022/10/23 09:31:48;;;;;;;;;;;;;;;;;;4985230;28;20027;-74
2022/10/23 09:34:14;;;;;;;;;;;;;;;;;;4986975;28;20353;-74
2022/10/23 09:36:40;;;;;;;;;;;;;;;;;;4982323;28;20381;-75
2022/10/23 09:39:19;;;;;;;;;;;17.30;99.90;;;;;;4982048;28;19914;-76
2022/10/23 09:41:45;;;;;;;;;;;17.10;99.90;;;;;;4982129;28;19910;-76
2022/10/23 09:44:10;;;;;;;;;;;;;;;;;;4979862;28;19926;-75
2022/10/23 09:46:37;;;;;;;;;;;17.00;99.90;;;;;;4992347;28;20004;-75
2022/10/23 09:51:48;;;;;;;;;;;;;;;;;;5005756;28;20343;-72
2022/10/23 09:54:14;;;;;;;;;;;;;;;;;;5001591;28;19910;-72
2022/10/23 09:56:40;;;;;;;;;;;17.00;99.90;;;;;;5002334;28;19913;-72
2022/10/23 09:59:06;;;;;;;;;;;;;;;;;;5004104;28;20272;-74
2022/10/23 10:01:32;;;;;;;;;;;;;;;;;;5003470;28;19910;-74
2022/10/23 10:03:57;;;;;;;;;;;16.90;99.90;;;;;;5009514;28;19917;-74
2022/10/23 10:06:23;;;;;;;;;;;17.00;99.90;;;;;;5013341;28;20317;-74
2022/10/23 10:08:49;;;;;;;;;;;;;;;;;;5006121;28;19920;-74
2022/10/23 10:11:23;;;;;;;;;;;17.00;99.90;;;;;;5004081;28;19992;-73
2022/10/23 10:13:51;;;;;;;;;;;17.20;99.90;;;;;;5005971;28;20395;-74
2022/10/23 10:16:40;;;;;;;;;;;17.20;99.90;;;;;;5008277;28;19928;-75
2022/10/23 10:19:18;;;;;;;;;;;17.60;99.90;;;;;;5011424;28;19937;-73
2022/10/23 10:21:44;;;;;;;;;;;;;;;;;;5006868;28;19910;-75
2022/10/23 10:24:09;;;;;;;;;;;17.80;99.90;;;;;;5014403;28;19916;-67
2022/10/23 10:26:42;;;;;;;;;;;17.90;99.90;;;;;;5005077;28;19921;-69
2022/10/23 10:29:29;;;;;;;;;;;17.80;99.90;;;;;;5006695;28;20280;-73
2022/10/23 10:31:55;;;;;;;;;;;;;;;;;;5004070;28;19993;-72
2022/10/23 10:34:21;;;;;;;;;;;;;;;;;;5005082;28;20342;-76
2022/10/23 10:36:47;;;;;;;;;;;17.60;99.90;;;;;;5013876;28;19909;-75
2022/10/23 10:39:12;;;;;;;;;;;;;;;;;;5012307;28;19910;-75
2022/10/23 10:41:38;;;;;;;;;;;;;;;;;;5011681;28;20266;-74
2022/10/23 10:44:04;;;;;;;;;;;;;;;;;;5014569;28;20376;-74
2022/10/23 10:46:35;;;;;;;;;;;17.80;99.90;;;;;;5018358;28;19921;-74
2022/10/23 10:49:01;;;;;;;;;;;;;;;;;;5015339;28;19997;-74
2022/10/23 10:51:27;;;;;;;;;;;;;;;;;;5013070;28;19945;-75
2022/10/23 10:53:52;;;;;;;;;;;18.40;99.90;;;;;;5026103;28;19909;-74
2022/10/23 10:56:18;;;;;;;;;;;;;;;;;;5024577;28;19916;-74
2022/10/23 10:58:44;;;;;;;;;;;;;;;;;;5015205;28;19910;-73
2022/10/23 11:01:10;;;;;;;;;;;;;;;;;;5014153;28;19983;-73
2022/10/23 11:03:35;;;;;;;;;;;18.90;99.90;;;;;;5017815;28;19951;-74
2022/10/23 11:06:01;;;;;;;;;;;;;;;;;;5014288;28;19924;-73
2022/10/23 11:08:27;;;;;;;;;;;;;;;;;;5023344;28;19955;-73
2022/10/23 11:10:56;;;;;;;;;;;18.90;99.90;;;;;;5022676;28;20399;-73
2022/10/23 11:13:35;;;;;;;;;;;19.00;99.90;;;;;;5028739;28;19909;-74
2022/10/23 11:16:01;;;;;;;;;;;;;;;;;;5019620;28;19909;-74
2022/10/23 11:18:28;;;;;;;;;;;18.90;99.90;;;;;;5017664;28;19916;-74
2022/10/23 11:21:13;;;;;;;;;;;18.70;99.90;;;;;;5012826;28;19991;-73
2022/10/23 11:23:39;;;;;;;;;;;19.30;99.90;;;;;;5019612;28;19909;-73
2022/10/23 11:26:19;;;;;;;;;;;19.40;99.90;;;;;;5022424;28;20320;-73
2022/10/23 11:29:01;;;;;;;;;;;19.20;99.90;;;;;;5010056;28;19909;-75
2022/10/23 11:31:27;;;;;;;;;;;;;;;;;;5022542;28;19941;-73
2022/10/23 11:33:58;;;;;;;;;;;20.20;99.90;;;;;;5022138;28;20319;-74
2022/10/23 11:36:42;;;;;;;;;;;20.60;99.90;;;;;;5012992;28;19909;-74
2022/10/23 11:39:14;;;;;;;;;;;20.90;99.90;;;;;;5012407;28;20040;-75
2022/10/23 11:41:40;;;;;;;;;;;;;;;;;;5012557;28;19919;-74
2022/10/23 11:44:22;;;;;;;;;;;21.30;99.90;;;;;;5013489;28;20020;-74
2022/10/23 11:46:58;;;;;;;;;;;20.10;99.90;;;;;;5007987;28;19913;-72
2022/10/23 11:49:23;;;;;;;;;;;21.30;99.90;;;;;;5014227;28;20031;-73
2022/10/23 11:51:58;;;;;;;;;;;21.50;99.90;;;;;;5012661;28;20373;-73
2022/10/23 11:54:25;;;;;;;;;;;21.30;99.90;;;;;;5026550;28;19909;-72
2022/10/23 11:57:10;;;;;;;;;;;21.10;99.90;;;;;;5010386;28;19910;-72
2022/10/23 11:59:41;;;;;;;;;;;20.70;99.90;;;;;;5024989;28;19948;-72
2022/10/23 12:02:25;;;;;;;;;;;20.60;99.90;;;;;;5019638;28;20269;-72
2022/10/23 12:04:52;;;;;;;;;;;21.50;99.90;;;;;;5017589;28;19916;-72
2022/10/23 12:07:22;;;;;;;;;;;22.20;99.90;;;;;;5011034;28;20361;-72
2022/10/23 12:09:56;;;;;;;;;;;22.50;99.90;;;;;;5010274;28;19951;-73
2022/10/23 12:12:30;;;;;;;;;;;21.90;99.90;;;;;;5010230;28;19910;-72
2022/10/23 12:14:56;;;;;;;;;;;;;;;;;;5002630;28;19940;-71
2022/10/23 12:17:22;;;;;;;;;;;22.50;99.90;;;;;;5020851;28;19974;-71
2022/10/23 12:19:48;;;;;;;;;;;;;;;;;;5013092;28;19973;-71
2022/10/23 12:22:14;;;;;;;;;;;21.80;99.90;;;;;;5012373;28;19933;-72
2022/10/23 12:25:05;;;;;;;;;;;21.50;99.90;;;;;;5014154;28;20320;-70
2022/10/23 12:27:49;;;;;;;;;;;21.20;99.90;;;;;;5015340;28;20323;-70
2022/10/23 12:30:27;;;;;;;;;;;21.50;99.90;;;;;;5010569;28;20266;-70
2022/10/23 12:32:53;;;;;;;;;;;;;;;;;;5016514;28;19912;-71
2022/10/23 12:35:19;;;;;;;;;;;;;;;;;;5023520;28;19955;-71
2022/10/23 12:37:45;;;;;;;;;;;;;;;;;;5023241;28;20400;-71
2022/10/23 12:40:11;;;;;;;;;;;;;;;;;;5024443;28;19915;-71
2022/10/23 12:42:36;;;;;;;;;;;22.00;99.90;;;;;;5019906;28;19917;-71
2022/10/23 12:45:02;;;;;;;;;;;;;;;;;;5024172;28;20434;-71
2022/10/23 12:47:29;;;;;;;;;;;22.10;99.90;;;;;;5023246;28;19955;-70
2022/10/23 12:49:54;;;;;;;;;;;;;;;;;;5026769;28;19916;-70
2022/10/23 12:52:20;;;;;;;;;;;;;;;;;;5023061;28;19918;-70
2022/10/23 12:54:46;;;;;;;;;;;22.90;99.90;;;;;;5023123;28;19960;-69
2022/10/23 12:57:18;;;;;;;;;;;23.00;99.90;;;;;;5017874;28;19916;-69
2022/10/23 12:59:44;;;;;;;;;;;22.90;99.90;;;;;;5029455;28;19914;-71
2022/10/23 13:02:30;;;;;;;;;;;23.60;99.90;;;;;;5014977;28;19913;-69
2022/10/23 13:04:57;;;;;;;;;;;24.20;99.90;;;;;;5009920;28;19917;-70
2022/10/23 13:07:27;;;;;;;;;;;24.20;99.90;;;;;;5024560;28;19909;-70
2022/10/23 13:09:53;;;;;;;;;;;23.10;99.90;;;;;;5017445;28;20333;-69
2022/10/23 13:12:26;;;;;;;;;;;22.80;99.90;;;;;;5016189;28;19991;-69
2022/10/23 13:15:06;;;;;;;;;;;21.90;99.90;;;;;;5019773;28;19967;-70
2022/10/23 13:17:52;;;;;;;;;;;21.20;99.90;;;;;;5024740;28;19909;-69
2022/10/23 13:20:20;;;;;;;;;;;20.80;99.90;;;;;;5025589;28;20282;-65
2022/10/23 13:22:53;;;;;;;;;;;20.60;99.90;;;;;;5011655;28;19920;-71
2022/10/23 13:25:19;;;;;;;;;;;20.50;99.90;;;;;;5009892;28;19925;-69
2022/10/23 13:27:45;;;;;;;;;;;20.60;99.90;;;;;;5009378;28;19909;-70
2022/10/23 13:30:30;;;;;;;;;;;21.50;99.90;;;;;;5012202;28;19916;-69
2022/10/23 13:32:55;;;;;;;;;;;22.30;99.90;;;;;;5014492;28;19910;-70
2022/10/23 13:35:21;;;;;;;;;;;23.30;99.90;;;;;;5012155;28;20039;-69
2022/10/23 13:37:47;;;;;;;;;;;23.90;99.90;;;;;;5008652;28;19916;-68
2022/10/23 13:40:24;;;;;;;;;;;24.30;99.90;;;;;;5005363;28;19916;-68
2022/10/23 13:42:53;;;;;;;;;;;24.90;99.90;;;;;;5004757;28;19921;-68
2022/10/23 13:45:21;;;;;;;;;;;24.70;99.90;;;;;;5009867;28;20360;-68
2022/10/23 13:47:46;;;;;;;;;;;24.90;99.90;;;;;;5005178;28;19975;-68
2022/10/23 13:50:12;;;;;;;;;;;25.10;99.90;;;;;;5007091;28;19909;-68
2022/10/23 13:52:37;;;;;;;;;;;25.30;99.90;;;;;;5004444;28;19909;-68
2022/10/23 13:55:11;;;;;;;;;;;25.20;99.90;;;;;;5009840;28;19989;-69
2022/10/23 13:57:37;;;;;;;;;;;25.30;99.90;;;;;;5000683;28;19910;-69
2022/10/23 14:00:03;;;;;;;;;;;25.30;99.90;;;;;;5011803;28;19962;-68
2022/10/23 14:02:29;;;;;;;;;;;25.10;99.90;;;;;;5000105;28;20015;-68
2022/10/23 14:04:54;;;;;;;;;;;23.70;99.90;;;;;;5007683;28;19923;-68
2022/10/23 14:07:20;;;;;;;;;;;24.70;99.90;;;;;;5004335;28;19910;-69
2022/10/23 14:09:45;;;;;;;;;;;24.70;99.90;;;;;;5012667;28;19919;-68
2022/10/23 14:12:11;;;;;;;;;;;24.60;99.90;;;;;;5007275;28;19909;-68
2022/10/23 14:14:37;;;;;;;;;;;;;;;;;;5013271;28;19910;-68
2022/10/23 14:17:03;;;;;;;;;;;24.00;99.90;;;;;;5006656;28;19959;-68
2022/10/23 14:19:29;;;;;;;;;;;;;;;;;;5009561;28;20369;-70
2022/10/23 14:21:55;;;;;;;;;;;;;;;;;;5003528;28;19910;-70
2022/10/23 14:24:21;;;;;;;;;;;;;;;;;;5010852;28;19921;-71
2022/10/23 14:26:46;;;;;;;;;;;22.90;99.90;;;;;;5007262;28;19992;-68
2022/10/23 14:29:12;;;;;;;;;;;22.40;99.90;;;;;;5006542;28;19910;-67
2022/10/23 14:31:37;;;;;;;;;;;21.80;99.90;;;;;;4999370;28;19917;-69
2022/10/23 14:34:03;;;;;;;;;;;;;;;;;;5004561;28;19910;-69
2022/10/23 14:36:29;;;;;;;;;;;;;;;;;;5003271;28;19917;-69
2022/10/23 14:38:55;;;;;;;;;;;;;;;;;;5004269;28;20353;-69
2022/10/23 14:41:21;;;;;;;;;;;20.10;99.90;;;;;;5007834;28;20012;-69
2022/10/23 14:43:47;;;;;;;;;;;;;;;;;;5002741;28;20638;-69
2022/10/23 14:46:13;;;;;;;;;;;;;;;;;;5001117;28;19917;-69
2022/10/23 14:48:38;;;;;;;;;;;19.40;99.90;;;;;;5009568;28;19929;-68
2022/10/23 14:51:05;;;;;;;;;;;19.60;99.90;;;;;;5002404;28;19909;-71
2022/10/23 14:53:31;;;;;;;;;;;19.30;99.90;;;;;;5009538;28;19917;-68
2022/10/23 14:56:03;;;;;;;;;;;19.40;99.90;;;;;;5001412;28;19917;-68
2022/10/23 14:58:29;;;;;;;;;;;19.30;99.90;;;;;;4997354;28;20385;-70
2022/10/23 15:00:58;;;;;;;;;;;19.20;99.90;;;;;;5004634;28;19936;-67
2022/10/23 15:03:23;;;;;;;;;;;19.10;99.90;;;;;;5002150;28;19905;-69
2022/10/23 15:05:49;;;;;;;;;;;19.00;99.90;;;;;;4998491;28;19928;-69
2022/10/23 15:08:15;;;;;;;;;;;18.90;99.90;;;;;;5005861;28;19962;-70
2022/10/23 15:10:40;;;;;;;;;;;18.80;99.90;;;;;;5006697;28;19920;-68